createdAt,value
2022-08-05T00:01:35.938Z,5.90
2022-08-05T00:04:17.890Z,7.40
2022-08-05T00:06:47.244Z,6.90
2022-08-05T00:09:20.318Z,5.80
2022-08-05T00:11:55.638Z,5.70
2022-08-05T00:14:27.594Z,5.70
2022-08-05T00:16:57.913Z,5.30
2022-08-05T00:19:33.322Z,4.80
2022-08-05T00:22:13.967Z,5.80
2022-08-05T00:24:45.869Z,7.90
2022-08-05T00:27:35.646Z,9.00
2022-08-05T00:30:05.619Z,9.60
2022-08-05T00:32:39.469Z,8.30
2022-08-05T00:35:09.150Z,7.50
2022-08-05T00:37:53.316Z,7.60
2022-08-05T00:40:27.390Z,6.90
2022-08-05T00:42:58.573Z,5.70
2022-08-05T00:45:38.065Z,5.10
2022-08-05T00:48:09.312Z,6.30
2022-08-05T00:50:44.381Z,7.20
2022-08-05T00:54:00.867Z,7.80
2022-08-05T00:56:07.835Z,9.10
2022-08-05T00:58:36.933Z,6.40
2022-08-05T01:01:08.651Z,5.70
2022-08-05T01:03:39.262Z,4.80
2022-08-05T01:06:14.046Z,4.90
2022-08-05T01:08:44.749Z,4.40
2022-08-05T01:11:37.794Z,4.20
2022-08-05T01:14:15.412Z,4.80
2022-08-05T01:16:55.337Z,4.00
2022-08-05T01:19:36.565Z,3.90
2022-08-05T01:22:27.707Z,4.10
2022-08-05T01:25:17.286Z,4.70
2022-08-05T01:28:18.060Z,4.40
2022-08-05T01:30:55.311Z,3.90
2022-08-05T01:33:26.423Z,4.10
2022-08-05T01:35:57.605Z,4.10
2022-08-05T01:38:29.191Z,4.20
2022-08-05T01:41:00.098Z,3.80
2022-08-05T01:43:32.259Z,4.30
2022-08-05T01:46:07.370Z,3.90
2022-08-05T01:48:49.535Z,4.00
2022-08-05T01:51:19.311Z,3.80
2022-08-05T01:53:56.974Z,5.20
2022-08-05T01:58:13.860Z,4.50
2022-08-05T01:59:23.191Z,3.90
2022-08-05T02:01:55.504Z,4.00
2022-08-05T02:04:26.649Z,4.90
2022-08-05T02:06:57.859Z,4.10
2022-08-05T02:09:26.832Z,4.20
2022-08-05T02:12:06.717Z,5.10
2022-08-05T02:14:52.786Z,4.60
2022-08-05T02:18:28.357Z,4.80
2022-08-05T02:20:30.752Z,3.90
2022-08-05T02:23:11.133Z,3.90
2022-08-05T02:25:49.111Z,4.10
2022-08-05T02:28:31.247Z,3.80
2022-08-05T02:31:14.857Z,4.30
2022-08-05T02:34:12.059Z,4.30
2022-08-05T02:36:44.117Z,3.80
2022-08-05T02:39:13.443Z,3.90
2022-08-05T02:42:00.930Z,3.60
2022-08-05T02:44:32.244Z,3.70
2022-08-05T02:47:02.209Z,3.90
2022-08-05T02:49:37.750Z,4.30
2022-08-05T02:52:29.798Z,3.90
2022-08-05T02:55:05.431Z,3.70
2022-08-05T02:58:09.833Z,4.10
2022-08-05T03:00:27.736Z,4.20
2022-08-05T03:02:57.663Z,4.10
2022-08-05T03:06:56.095Z,4.00
2022-08-05T03:08:14.935Z,4.20
2022-08-05T03:11:01.281Z,4.10
2022-08-05T03:13:52.094Z,3.80
2022-08-05T03:16:21.988Z,3.60
2022-08-05T03:18:51.377Z,4.30
2022-08-05T03:21:19.934Z,4.00
2022-08-05T03:23:50.353Z,3.80
2022-08-05T03:26:31.122Z,5.20
2022-08-05T03:29:00.967Z,3.10
2022-08-05T03:31:55.949Z,3.80
2022-08-05T03:34:18.152Z,4.00
2022-08-05T03:36:46.334Z,3.90
2022-08-05T03:39:20.201Z,4.00
2022-08-05T03:41:56.536Z,3.70
2022-08-05T03:44:25.342Z,3.80
2022-08-05T03:46:57.250Z,4.20
2022-08-05T03:49:30.881Z,3.90
2022-08-05T03:52:49.384Z,3.40
2022-08-05T03:56:05.357Z,3.10
2022-08-05T03:58:11.252Z,4.00
2022-08-05T04:00:41.979Z,3.50
2022-08-05T04:03:15.036Z,4.40
2022-08-05T04:05:59.269Z,4.10
2022-08-05T04:08:36.513Z,4.10
2022-08-05T04:11:08.581Z,4.20
2022-08-05T04:13:50.647Z,3.90
2022-08-05T04:16:24.959Z,4.00
2022-08-05T04:19:00.623Z,4.30
2022-08-05T04:22:09.624Z,4.00
2022-08-05T04:24:19.204Z,4.20
2022-08-05T04:26:51.056Z,4.70
2022-08-05T04:29:19.671Z,4.40
2022-08-05T04:31:48.333Z,3.80
2022-08-05T04:34:32.722Z,4.30
2022-08-05T04:37:03.562Z,4.10
2022-08-05T04:39:32.422Z,4.30
2022-08-05T04:42:04.050Z,4.50
2022-08-05T04:44:32.246Z,4.80
2022-08-05T04:47:09.400Z,4.20
2022-08-05T04:50:02.133Z,4.60
2022-08-05T04:52:29.245Z,4.70
2022-08-05T04:55:13.803Z,4.90
2022-08-05T04:57:47.996Z,4.10
2022-08-05T05:00:23.235Z,4.40
2022-08-05T05:02:54.930Z,4.70
2022-08-05T05:05:28.879Z,4.30
2022-08-05T05:08:05.557Z,4.00
2022-08-05T05:10:47.232Z,4.20
2022-08-05T05:13:24.059Z,3.80
2022-08-05T05:15:56.796Z,3.90
2022-08-05T05:18:33.416Z,4.00
2022-08-05T05:21:06.570Z,3.30
2022-08-05T05:24:01.923Z,4.00
2022-08-05T05:26:28.778Z,3.40
2022-08-05T05:29:14.388Z,3.30
2022-08-05T05:31:43.316Z,3.90
2022-08-05T05:34:15.442Z,4.00
2022-08-05T05:36:43.895Z,3.60
2022-08-05T05:39:15.032Z,3.40
2022-08-05T05:41:54.260Z,3.70
2022-08-05T05:44:36.766Z,3.80
2022-08-05T05:47:21.255Z,3.40
2022-08-05T05:49:56.971Z,4.60
2022-08-05T05:52:34.537Z,3.80
2022-08-05T05:55:13.400Z,4.00
2022-08-05T05:57:52.409Z,3.10
2022-08-05T06:00:27.787Z,3.70
2022-08-05T06:03:01.796Z,3.50
2022-08-05T06:05:29.850Z,3.50
2022-08-05T06:08:01.902Z,3.80
2022-08-05T06:10:36.285Z,3.90
2022-08-05T06:13:05.401Z,4.00
2022-08-05T06:16:28.159Z,3.60
2022-08-05T06:18:31.060Z,3.40
2022-08-05T06:21:00.274Z,3.50
2022-08-05T06:23:43.669Z,3.30
2022-08-05T06:26:21.439Z,3.60
2022-08-05T06:29:00.238Z,3.80
2022-08-05T06:31:32.163Z,3.60
2022-08-05T06:34:07.550Z,3.60
2022-08-05T06:36:57.349Z,4.00
2022-08-05T06:39:27.219Z,3.30
2022-08-05T06:42:04.029Z,3.70
2022-08-05T06:44:32.382Z,3.80
2022-08-05T06:47:02.252Z,2.90
2022-08-05T06:49:59.885Z,3.10
2022-08-05T06:52:37.152Z,4.20
2022-08-05T06:55:07.595Z,3.50
2022-08-05T06:57:57.144Z,3.00
2022-08-05T07:00:25.550Z,2.90
2022-08-05T07:02:54.218Z,2.90
2022-08-05T07:05:31.791Z,2.90
2022-08-05T07:08:10.678Z,2.80
2022-08-05T07:10:52.729Z,3.40
2022-08-05T07:13:57.947Z,2.90
2022-08-05T07:18:00.690Z,3.70
2022-08-05T07:22:29.120Z,3.10
2022-08-05T07:25:23.686Z,3.30
2022-08-05T07:27:57.585Z,3.70
2022-08-05T07:30:39.194Z,2.90
2022-08-05T07:33:16.672Z,3.10
2022-08-05T07:36:05.059Z,3.50
2022-08-05T07:38:43.684Z,3.30
2022-08-05T07:42:13.277Z,3.50
2022-08-05T07:44:14.245Z,3.00
2022-08-05T07:46:49.601Z,3.30
2022-08-05T07:49:20.820Z,4.20
2022-08-05T07:51:54.182Z,3.20
2022-08-05T07:54:30.980Z,2.80
2022-08-05T07:57:41.997Z,3.30
2022-08-05T07:59:50.776Z,3.40
2022-08-05T08:02:26.732Z,3.30
2022-08-05T08:05:00.099Z,3.60
2022-08-05T08:07:39.559Z,3.30
2022-08-05T08:10:20.733Z,3.40
2022-08-05T08:12:50.152Z,3.60
2022-08-05T08:15:28.075Z,3.20
2022-08-05T08:18:13.924Z,3.50
2022-08-05T08:21:00.236Z,3.50
2022-08-05T08:24:02.127Z,3.20
2022-08-05T08:26:17.954Z,2.50
2022-08-05T08:29:21.666Z,2.90
2022-08-05T08:31:50.232Z,2.90
2022-08-05T08:34:30.899Z,3.40
2022-08-05T08:37:03.285Z,3.20
2022-08-05T08:39:37.496Z,2.70
2022-08-05T08:42:27.566Z,2.70
2022-08-05T08:45:22.914Z,3.70
2022-08-05T08:48:10.711Z,3.30
2022-08-05T08:51:03.793Z,3.50
2022-08-05T08:53:35.677Z,2.90
2022-08-05T08:56:06.301Z,3.60
2022-08-05T08:58:43.700Z,3.00
2022-08-05T09:01:18.915Z,3.90
2022-08-05T09:04:02.537Z,3.90
2022-08-05T09:06:36.212Z,2.50
2022-08-05T09:09:04.769Z,3.80
2022-08-05T09:11:52.980Z,2.70
2022-08-05T09:14:56.727Z,3.50
2022-08-05T09:17:40.579Z,3.10
2022-08-05T09:20:05.858Z,3.10
2022-08-05T09:23:05.431Z,3.00
2022-08-05T09:26:01.756Z,2.70
2022-08-05T09:28:31.866Z,3.20
2022-08-05T09:32:39.009Z,3.30
2022-08-05T09:34:00.304Z,3.20
2022-08-05T09:36:56.381Z,2.70
2022-08-05T09:39:56.159Z,3.00
2022-08-05T09:42:28.156Z,2.80
2022-08-05T09:45:17.605Z,2.30
2022-08-05T09:47:56.337Z,1.90
2022-08-05T09:50:38.679Z,2.00
2022-08-05T09:53:18.359Z,2.20
2022-08-05T09:55:56.369Z,2.60
2022-08-05T09:58:38.901Z,2.60
2022-08-05T10:01:14.601Z,2.20
2022-08-05T10:04:09.989Z,2.80
2022-08-05T10:06:54.633Z,2.30
2022-08-05T10:09:28.221Z,2.70
2022-08-05T10:12:30.969Z,1.80
2022-08-05T10:15:17.095Z,2.30
2022-08-05T10:18:17.309Z,3.00
2022-08-05T10:20:52.032Z,3.30
2022-08-05T10:23:55.664Z,4.10
2022-08-05T10:26:19.897Z,2.80
2022-08-05T10:29:00.158Z,3.10
2022-08-05T10:32:51.845Z,3.10
2022-08-05T10:34:16.981Z,3.90
2022-08-05T10:36:45.813Z,3.20
2022-08-05T10:39:25.106Z,2.70
2022-08-05T10:42:18.888Z,3.50
2022-08-05T10:45:01.432Z,3.40
2022-08-05T10:47:34.639Z,4.20
2022-08-05T10:50:32.965Z,4.10
2022-08-05T10:52:58.762Z,3.50
2022-08-05T10:55:27.821Z,3.40
2022-08-05T10:58:12.109Z,3.10
2022-08-05T11:00:55.101Z,3.40
2022-08-05T11:03:29.426Z,3.00
2022-08-05T11:06:30.797Z,3.30
2022-08-05T11:09:24.256Z,3.60
2022-08-05T11:12:24.915Z,3.60
2022-08-05T11:15:59.044Z,2.90
2022-08-05T11:18:26.115Z,3.70
2022-08-05T11:20:54.814Z,3.10
2022-08-05T11:24:04.856Z,3.10
2022-08-05T11:26:43.289Z,3.50
2022-08-05T11:29:35.677Z,3.90
2022-08-05T11:32:28.292Z,3.30
2022-08-05T11:34:57.700Z,3.30
2022-08-05T11:38:29.209Z,3.80
2022-08-05T11:41:14.460Z,3.50
2022-08-05T11:44:08.445Z,3.30
2022-08-05T11:47:11.000Z,3.50
2022-08-05T11:49:49.745Z,3.30
2022-08-05T11:52:29.634Z,4.00
2022-08-05T11:55:07.107Z,3.70
2022-08-05T11:58:08.260Z,3.00
2022-08-05T12:00:29.190Z,2.50
2022-08-05T12:03:15.047Z,3.50
2022-08-05T12:05:43.718Z,4.10
2022-08-05T12:08:17.970Z,3.60
2022-08-05T12:10:49.819Z,3.40
2022-08-05T12:13:27.877Z,3.20
2022-08-05T12:16:15.363Z,3.70
2022-08-05T12:18:49.449Z,3.20
2022-08-05T12:24:11.033Z,3.50
2022-08-05T12:26:44.283Z,4.00
2022-08-05T12:29:16.406Z,3.00
2022-08-05T12:31:57.172Z,3.20
2022-08-05T12:34:31.478Z,2.80
2022-08-05T12:37:07.614Z,2.80
2022-08-05T12:47:19.395Z,3.20
2022-08-05T12:50:07.826Z,2.90
2022-08-05T12:53:03.011Z,3.30
2022-08-05T12:59:27.488Z,3.30
2022-08-05T13:06:23.493Z,3.20
2022-08-05T13:08:52.897Z,2.30
2022-08-05T13:12:42.514Z,3.70
2022-08-05T13:16:28.650Z,2.50
2022-08-05T13:18:58.560Z,2.70
2022-08-05T13:21:28.342Z,2.30
2022-08-05T13:24:08.912Z,3.10
2022-08-05T13:26:37.196Z,3.00
2022-08-05T13:29:05.520Z,2.90
2022-08-05T13:32:04.315Z,3.20
2022-08-05T13:34:25.857Z,3.10
2022-08-05T13:36:54.718Z,3.10
2022-08-05T13:40:13.987Z,2.90
2022-08-05T13:42:14.703Z,3.00
2022-08-05T13:44:45.726Z,2.30
2022-08-05T13:47:34.568Z,3.40
2022-08-05T13:50:06.806Z,3.90
2022-08-05T13:52:38.326Z,3.50
2022-08-05T13:55:07.524Z,3.40
2022-08-05T13:57:49.016Z,4.30
2022-08-05T14:00:26.894Z,3.30
2022-08-05T14:02:57.298Z,3.30
2022-08-05T14:05:48.129Z,3.30
2022-08-05T14:08:20.077Z,2.50
2022-08-05T14:10:49.716Z,3.30
2022-08-05T14:13:17.736Z,3.40
2022-08-05T14:16:07.367Z,4.50
2022-08-05T14:18:37.952Z,2.90
2022-08-05T14:22:07.490Z,3.70
2022-08-05T14:23:54.346Z,3.60
2022-08-05T14:26:38.453Z,3.30
2022-08-05T14:29:10.024Z,2.90
2022-08-05T14:32:02.770Z,3.40
2022-08-05T14:34:36.090Z,3.40
2022-08-05T14:37:05.086Z,3.90
2022-08-05T14:39:49.637Z,3.40
2022-08-05T14:42:22.517Z,3.70
2022-08-05T14:44:53.540Z,4.30
2022-08-05T14:48:03.339Z,3.30
2022-08-05T14:50:18.082Z,4.20
2022-08-05T14:52:53.552Z,4.30
2022-08-05T14:55:38.777Z,3.40
2022-08-05T14:58:12.206Z,4.00
2022-08-05T15:00:58.577Z,3.80
2022-08-05T15:03:33.746Z,4.50
2022-08-05T15:06:15.082Z,4.00
2022-08-05T15:09:01.124Z,3.30
2022-08-05T15:11:51.956Z,3.00
2022-08-05T15:14:35.066Z,3.90
2022-08-05T15:17:44.554Z,3.70
2022-08-05T15:19:59.381Z,4.10
2022-08-05T15:22:28.182Z,3.40
2022-08-05T15:24:59.883Z,4.10
2022-08-05T15:27:32.284Z,4.90
2022-08-05T15:30:04.924Z,4.50
2022-08-05T15:32:33.092Z,4.10
2022-08-05T15:35:09.876Z,4.40
2022-08-05T15:38:32.613Z,3.70
2022-08-05T15:40:58.187Z,3.80
2022-08-05T15:43:22.009Z,4.40
2022-08-05T15:46:00.050Z,3.20
2022-08-05T15:48:30.215Z,4.40
2022-08-05T15:51:03.626Z,4.10
2022-08-05T15:53:38.407Z,3.80
2022-08-05T15:56:20.260Z,4.40
2022-08-05T15:58:49.024Z,3.80
2022-08-05T16:01:20.177Z,3.80
2022-08-05T16:04:00.104Z,4.50
2022-08-05T16:06:28.082Z,3.80
2022-08-05T16:08:55.986Z,3.60
2022-08-05T16:11:42.938Z,4.40
2022-08-05T16:14:17.129Z,3.70
2022-08-05T16:16:47.038Z,4.00
2022-08-05T16:19:25.243Z,3.90
2022-08-05T16:22:04.603Z,4.10
2022-08-05T16:24:40.260Z,3.50
2022-08-05T16:27:16.421Z,4.10
2022-08-05T16:29:50.274Z,4.10
2022-08-05T16:32:23.654Z,4.10
2022-08-05T16:34:59.031Z,4.20
2022-08-05T16:38:16.147Z,4.70
2022-08-05T16:40:28.549Z,4.60
2022-08-05T16:42:57.378Z,4.70
2022-08-05T16:46:04.729Z,4.00
2022-08-05T16:48:25.183Z,4.50
2022-08-05T16:50:54.832Z,4.50
2022-08-05T16:53:32.577Z,3.40
2022-08-05T16:56:11.846Z,3.90
2022-08-05T16:58:40.866Z,4.40
2022-08-05T17:01:10.604Z,3.90
2022-08-05T17:03:38.936Z,4.30
2022-08-05T17:06:07.544Z,4.60
2022-08-05T17:08:52.074Z,4.80
2022-08-05T17:11:25.363Z,4.20
2022-08-05T17:14:00.496Z,4.10
2022-08-05T17:16:36.526Z,5.30
2022-08-05T17:19:09.708Z,4.30
2022-08-05T17:21:39.525Z,4.40
2022-08-05T17:24:19.428Z,4.80
2022-08-05T17:26:58.452Z,4.50
2022-08-05T17:29:33.565Z,5.00
2022-08-05T17:32:17.268Z,4.90
2022-08-05T17:34:48.185Z,4.00
2022-08-05T17:37:40.463Z,4.20
2022-08-05T17:40:12.430Z,4.80
2022-08-05T17:42:50.911Z,5.20
2022-08-05T17:45:22.140Z,5.40
2022-08-05T17:47:55.812Z,5.40
2022-08-05T17:50:30.284Z,5.60
2022-08-05T17:53:04.536Z,5.90
2022-08-05T17:55:34.287Z,6.30
2022-08-05T17:58:13.067Z,7.50
2022-08-05T18:00:47.438Z,6.50
2022-08-05T18:03:58.376Z,5.70
2022-08-05T18:06:12.320Z,6.20
2022-08-05T18:08:52.182Z,6.20
2022-08-05T18:11:24.579Z,6.00
2022-08-05T18:13:59.797Z,6.30
2022-08-05T18:16:27.770Z,6.20
2022-08-05T18:18:57.378Z,6.20
2022-08-05T18:21:26.490Z,6.10
2022-08-05T18:24:14.477Z,6.30
2022-08-05T18:26:43.833Z,7.00
2022-08-05T18:29:11.863Z,6.90
2022-08-05T18:31:44.994Z,7.60
2022-08-05T18:34:14.971Z,7.10
2022-08-05T18:36:54.342Z,6.30
2022-08-05T18:40:31.814Z,7.30
2022-08-05T18:42:11.372Z,6.50
2022-08-05T18:44:49.166Z,6.20
2022-08-05T18:47:26.862Z,7.10
2022-08-05T18:50:15.579Z,7.50
2022-08-05T18:52:51.217Z,7.00
2022-08-05T18:55:22.387Z,7.60
2022-08-05T18:57:53.295Z,7.10
2022-08-05T19:00:28.774Z,7.60
2022-08-05T19:03:03.547Z,7.60
2022-08-05T19:06:11.128Z,7.70
2022-08-05T19:08:30.591Z,8.60
2022-08-05T19:11:02.728Z,9.00
2022-08-05T19:13:36.026Z,8.70
2022-08-05T19:16:22.027Z,7.70
2022-08-05T19:18:56.766Z,8.00
2022-08-05T19:21:27.589Z,7.20
2022-08-05T19:24:06.626Z,7.60
2022-08-05T19:26:43.774Z,7.50
2022-08-05T19:29:26.803Z,8.90
2022-08-05T19:32:08.774Z,8.00
2022-08-05T19:34:40.389Z,8.10
2022-08-05T19:37:10.140Z,7.90
2022-08-05T19:39:45.608Z,7.50
2022-08-05T19:42:35.545Z,7.30
2022-08-05T19:45:05.549Z,7.50
2022-08-05T19:47:37.994Z,8.20
2022-08-05T19:50:07.620Z,7.70
2022-08-05T19:52:39.301Z,7.90
2022-08-05T19:56:13.828Z,7.40
2022-08-05T19:58:10.379Z,7.20
2022-08-05T20:00:44.497Z,7.10
2022-08-05T20:03:12.494Z,7.80
2022-08-05T20:05:49.864Z,7.20
2022-08-05T20:08:20.287Z,7.40
2022-08-05T20:10:49.678Z,7.30
2022-08-05T20:13:30.272Z,7.00
2022-08-05T20:16:12.709Z,7.20
2022-08-05T20:18:55.375Z,7.40
2022-08-05T20:21:25.715Z,7.20
2022-08-05T20:23:53.663Z,7.00
2022-08-05T20:26:27.445Z,7.50
2022-08-05T20:28:57.513Z,7.60
2022-08-05T20:31:42.077Z,7.50
2022-08-05T20:34:17.615Z,7.50
2022-08-05T20:36:45.608Z,7.00
2022-08-05T20:39:16.794Z,7.80
2022-08-05T20:41:47.829Z,7.60
2022-08-05T20:44:30.456Z,8.60
2022-08-05T20:47:03.455Z,8.50
2022-08-05T20:49:33.174Z,7.30
2022-08-05T20:52:08.768Z,7.20
2022-08-05T20:54:55.241Z,7.60
2022-08-05T20:57:43.674Z,7.70
2022-08-05T21:00:40.459Z,7.80
2022-08-05T21:03:06.727Z,7.00
2022-08-05T21:05:53.908Z,7.90
2022-08-05T21:08:26.631Z,7.60
2022-08-05T21:11:15.097Z,8.10
2022-08-05T21:14:06.117Z,7.50
2022-08-05T21:16:35.713Z,8.70
2022-08-05T21:19:04.741Z,8.40
2022-08-05T21:21:44.522Z,8.00
2022-08-05T21:24:31.763Z,8.10
2022-08-05T21:27:00.148Z,8.20
2022-08-05T21:29:31.885Z,7.90
2022-08-05T21:32:06.984Z,7.90
2022-08-05T21:35:06.716Z,8.60
2022-08-05T21:37:41.454Z,8.60
2022-08-05T21:40:13.089Z,8.90
2022-08-05T21:42:45.639Z,8.30
2022-08-05T21:45:51.849Z,8.50
2022-08-05T21:48:25.935Z,8.30
2022-08-05T21:50:54.457Z,8.60
2022-08-05T21:53:27.503Z,8.50
2022-08-05T21:56:16.210Z,8.50
2022-08-05T21:58:56.905Z,8.40
2022-08-05T22:01:26.718Z,8.60
2022-08-05T22:04:13.318Z,8.70
2022-08-05T22:06:42.305Z,7.90
2022-08-05T22:09:21.460Z,8.50
2022-08-05T22:11:50.527Z,7.50
2022-08-05T22:14:35.696Z,8.70
2022-08-05T22:17:07.231Z,7.90
2022-08-05T22:20:01.495Z,8.60
2022-08-05T22:22:26.924Z,8.50
2022-08-05T22:25:21.645Z,8.20
2022-08-05T22:28:09.336Z,8.50
2022-08-05T22:30:44.031Z,7.90
2022-08-05T22:33:56.594Z,8.70
2022-08-05T22:36:15.185Z,8.10
2022-08-05T22:38:48.215Z,7.60
2022-08-05T22:41:26.307Z,8.10
2022-08-05T22:44:08.598Z,7.90
2022-08-05T22:46:39.468Z,8.20
2022-08-05T22:49:23.008Z,7.70
2022-08-05T22:52:06.568Z,7.70
2022-08-05T22:54:40.667Z,8.10
2022-08-05T22:57:24.966Z,7.40
2022-08-05T22:59:54.537Z,7.30
2022-08-05T23:02:29.421Z,6.60
2022-08-05T23:05:01.978Z,7.30
2022-08-05T23:07:35.742Z,7.00
2022-08-05T23:10:20.274Z,7.10
2022-08-05T23:12:51.730Z,7.70
2022-08-05T23:15:29.829Z,7.50
2022-08-05T23:18:06.050Z,7.20
2022-08-05T23:20:40.501Z,6.80
2022-08-05T23:23:11.457Z,7.40
2022-08-05T23:25:52.144Z,7.30
2022-08-05T23:28:28.880Z,6.70
2022-08-05T23:31:16.177Z,7.80
2022-08-05T23:34:03.326Z,7.10
2022-08-05T23:36:39.912Z,7.10
2022-08-05T23:39:17.202Z,7.30
2022-08-05T23:41:52.685Z,7.90
2022-08-05T23:44:31.094Z,7.70
2022-08-05T23:47:02.521Z,7.20
2022-08-05T23:49:45.556Z,7.70
2022-08-05T23:52:32.306Z,7.50
2022-08-05T23:55:07.207Z,7.70
2022-08-05T23:57:37.260Z,7.60
